Terminal Aerodrome Forecast
Issued by NWS

Home | Current Version | Previous Version | Graphics & Text | Print | Product List | Glossary On
Versions: 1 2 3 4 5 6 7 8 9 10 11 12
000
FTUS45 KGGW 291132
TAFSDY
TAF
KSDY 291132Z 2912/3012 VRB03KT P6SM FEW190
     FM292000 21006KT P6SM BKN100
     FM300100 21004KT P6SM SCT100=

USA.gov is the U.S. government's official web portal to all federal, state and local government web resources and services.